sensor_id;sensor_type;location;lat;lon;timestamp;P1;durP1;ratioP1;P2;durP2;ratioP2
29162;SDS011;20331;53.144;8.208;2023-12-28T00:00:52;2.65;;;2.08;;
29162;SDS011;20331;53.144;8.208;2023-12-28T00:06:14;3.38;;;1.83;;
29162;SDS011;20331;53.144;8.208;2023-12-28T00:11:36;3.78;;;2.00;;
29162;SDS011;20331;53.144;8.208;2023-12-28T00:16:58;6.10;;;1.92;;
29162;SDS011;20331;53.144;8.208;2023-12-28T00:22:19;3.10;;;2.20;;
29162;SDS011;20331;53.144;8.208;2023-12-28T00:27:41;3.10;;;1.98;;
29162;SDS011;20331;53.144;8.208;2023-12-28T00:33:03;4.80;;;2.30;;
29162;SDS011;20331;53.144;8.208;2023-12-28T00:38:28;4.10;;;2.00;;
29162;SDS011;20331;53.144;8.208;2023-12-28T00:43:50;3.30;;;1.95;;
29162;SDS011;20331;53.144;8.208;2023-12-28T00:49:11;4.05;;;2.13;;
29162;SDS011;20331;53.144;8.208;2023-12-28T00:54:34;5.35;;;2.08;;
29162;SDS011;20331;53.144;8.208;2023-12-28T00:59:57;4.85;;;2.17;;
29162;SDS011;20331;53.144;8.208;2023-12-28T01:05:19;4.28;;;2.08;;
29162;SDS011;20331;53.144;8.208;2023-12-28T01:10:42;3.42;;;2.08;;
29162;SDS011;20331;53.144;8.208;2023-12-28T01:16:04;3.40;;;2.38;;
29162;SDS011;20331;53.144;8.208;2023-12-28T01:21:25;5.15;;;2.10;;
29162;SDS011;20331;53.144;8.208;2023-12-28T01:26:47;5.22;;;2.03;;
29162;SDS011;20331;53.144;8.208;2023-12-28T01:32:09;4.93;;;2.00;;
29162;SDS011;20331;53.144;8.208;2023-12-28T01:37:30;4.72;;;2.15;;
29162;SDS011;20331;53.144;8.208;2023-12-28T01:42:55;5.55;;;2.25;;
29162;SDS011;20331;53.144;8.208;2023-12-28T01:48:17;5.63;;;2.30;;
29162;SDS011;20331;53.144;8.208;2023-12-28T01:53:40;5.07;;;2.63;;
29162;SDS011;20331;53.144;8.208;2023-12-28T01:59:02;4.72;;;2.10;;
29162;SDS011;20331;53.144;8.208;2023-12-28T02:04:24;7.75;;;2.65;;
29162;SDS011;20331;53.144;8.208;2023-12-28T02:09:50;4.45;;;2.15;;
29162;SDS011;20331;53.144;8.208;2023-12-28T02:15:12;3.88;;;2.40;;
29162;SDS011;20331;53.144;8.208;2023-12-28T02:20:33;4.07;;;2.08;;
29162;SDS011;20331;53.144;8.208;2023-12-28T02:25:56;5.30;;;2.45;;
29162;SDS011;20331;53.144;8.208;2023-12-28T02:31:20;4.88;;;2.22;;
29162;SDS011;20331;53.144;8.208;2023-12-28T02:36:47;2.67;;;2.22;;
29162;SDS011;20331;53.144;8.208;2023-12-28T02:42:09;5.32;;;2.35;;
29162;SDS011;20331;53.144;8.208;2023-12-28T02:47:31;4.85;;;2.13;;
29162;SDS011;20331;53.144;8.208;2023-12-28T02:52:53;6.20;;;2.40;;
29162;SDS011;20331;53.144;8.208;2023-12-28T02:58:15;6.85;;;2.30;;
29162;SDS011;20331;53.144;8.208;2023-12-28T03:03:36;4.03;;;2.13;;
29162;SDS011;20331;53.144;8.208;2023-12-28T03:08:58;4.18;;;2.28;;
29162;SDS011;20331;53.144;8.208;2023-12-28T03:14:20;5.22;;;2.40;;
29162;SDS011;20331;53.144;8.208;2023-12-28T03:19:42;3.63;;;2.50;;
29162;SDS011;20331;53.144;8.208;2023-12-28T03:25:04;3.80;;;2.17;;
29162;SDS011;20331;53.144;8.208;2023-12-28T03:30:26;4.70;;;2.53;;
29162;SDS011;20331;53.144;8.208;2023-12-28T03:35:48;8.10;;;2.67;;
29162;SDS011;20331;53.144;8.208;2023-12-28T03:41:19;6.35;;;2.38;;
29162;SDS011;20331;53.144;8.208;2023-12-28T03:46:40;6.93;;;2.40;;
29162;SDS011;20331;53.144;8.208;2023-12-28T03:52:02;5.22;;;2.50;;
29162;SDS011;20331;53.144;8.208;2023-12-28T03:57:25;6.57;;;2.50;;
29162;SDS011;20331;53.144;8.208;2023-12-28T04:02:47;5.00;;;2.40;;
29162;SDS011;20331;53.144;8.208;2023-12-28T04:08:11;5.43;;;2.53;;
29162;SDS011;20331;53.144;8.208;2023-12-28T04:13:33;5.28;;;2.42;;
29162;SDS011;20331;53.144;8.208;2023-12-28T04:18:55;5.45;;;2.50;;
29162;SDS011;20331;53.144;8.208;2023-12-28T04:24:17;3.42;;;2.53;;
29162;SDS011;20331;53.144;8.208;2023-12-28T04:29:38;5.45;;;2.65;;
29162;SDS011;20331;53.144;8.208;2023-12-28T04:35:00;4.63;;;2.30;;
29162;SDS011;20331;53.144;8.208;2023-12-28T04:40:22;5.13;;;2.42;;
29162;SDS011;20331;53.144;8.208;2023-12-28T04:45:43;5.47;;;2.40;;
29162;SDS011;20331;53.144;8.208;2023-12-28T04:51:05;7.80;;;2.60;;
29162;SDS011;20331;53.144;8.208;2023-12-28T04:56:27;6.18;;;2.30;;
29162;SDS011;20331;53.144;8.208;2023-12-28T05:01:48;5.88;;;2.60;;
29162;SDS011;20331;53.144;8.208;2023-12-28T05:07:10;5.95;;;2.17;;
29162;SDS011;20331;53.144;8.208;2023-12-28T05:12:31;4.93;;;2.05;;
29162;SDS011;20331;53.144;8.208;2023-12-28T05:18:04;12.48;;;2.38;;
29162;SDS011;20331;53.144;8.208;2023-12-28T05:23:28;9.05;;;2.55;;
29162;SDS011;20331;53.144;8.208;2023-12-28T05:28:49;6.68;;;2.25;;
29162;SDS011;20331;53.144;8.208;2023-12-28T05:34:11;5.28;;;2.00;;
29162;SDS011;20331;53.144;8.208;2023-12-28T05:39:33;8.07;;;2.38;;
29162;SDS011;20331;53.144;8.208;2023-12-28T05:44:54;11.43;;;2.55;;
29162;SDS011;20331;53.144;8.208;2023-12-28T05:50:16;6.45;;;2.03;;
29162;SDS011;20331;53.144;8.208;2023-12-28T05:55:38;7.38;;;2.03;;
29162;SDS011;20331;53.144;8.208;2023-12-28T06:00:59;9.32;;;2.10;;
29162;SDS011;20331;53.144;8.208;2023-12-28T06:06:21;10.85;;;2.50;;
29162;SDS011;20331;53.144;8.208;2023-12-28T06:11:43;8.43;;;2.30;;
29162;SDS011;20331;53.144;8.208;2023-12-28T06:17:04;8.73;;;2.33;;
29162;SDS011;20331;53.144;8.208;2023-12-28T06:22:26;5.93;;;2.10;;
29162;SDS011;20331;53.144;8.208;2023-12-28T06:27:48;5.13;;;1.85;;
29162;SDS011;20331;53.144;8.208;2023-12-28T06:33:10;9.25;;;2.30;;
29162;SDS011;20331;53.144;8.208;2023-12-28T06:38:34;7.95;;;2.20;;
29162;SDS011;20331;53.144;8.208;2023-12-28T06:43:55;7.95;;;2.55;;
29162;SDS011;20331;53.144;8.208;2023-12-28T06:49:17;9.73;;;2.03;;
29162;SDS011;20331;53.144;8.208;2023-12-28T06:54:39;8.73;;;1.95;;
29162;SDS011;20331;53.144;8.208;2023-12-28T07:00:00;12.80;;;2.58;;
29162;SDS011;20331;53.144;8.208;2023-12-28T07:05:24;14.02;;;2.30;;
29162;SDS011;20331;53.144;8.208;2023-12-28T07:10:45;8.93;;;2.20;;
29162;SDS011;20331;53.144;8.208;2023-12-28T07:16:07;13.30;;;2.38;;
29162;SDS011;20331;53.144;8.208;2023-12-28T07:21:29;11.35;;;2.20;;
29162;SDS011;20331;53.144;8.208;2023-12-28T07:26:50;8.43;;;2.40;;
29162;SDS011;20331;53.144;8.208;2023-12-28T07:32:12;11.25;;;2.10;;
29162;SDS011;20331;53.144;8.208;2023-12-28T07:37:35;10.02;;;2.30;;
29162;SDS011;20331;53.144;8.208;2023-12-28T07:42:57;13.77;;;2.53;;
29162;SDS011;20331;53.144;8.208;2023-12-28T07:48:19;9.10;;;2.30;;
29162;SDS011;20331;53.144;8.208;2023-12-28T07:53:41;11.93;;;1.90;;
29162;SDS011;20331;53.144;8.208;2023-12-28T07:59:02;13.82;;;2.30;;
29162;SDS011;20331;53.144;8.208;2023-12-28T08:04:25;12.75;;;2.00;;
29162;SDS011;20331;53.144;8.208;2023-12-28T08:09:47;13.25;;;2.10;;
29162;SDS011;20331;53.144;8.208;2023-12-28T08:15:11;12.57;;;2.75;;
29162;SDS011;20331;53.144;8.208;2023-12-28T08:20:33;11.38;;;2.42;;
29162;SDS011;20331;53.144;8.208;2023-12-28T08:25:55;14.68;;;2.60;;
29162;SDS011;20331;53.144;8.208;2023-12-28T08:31:17;8.75;;;2.17;;
29162;SDS011;20331;53.144;8.208;2023-12-28T08:36:39;13.80;;;2.30;;
29162;SDS011;20331;53.144;8.208;2023-12-28T08:42:01;8.85;;;1.63;;
29162;SDS011;20331;53.144;8.208;2023-12-28T08:47:22;11.52;;;1.83;;
29162;SDS011;20331;53.144;8.208;2023-12-28T08:52:44;14.13;;;2.10;;
29162;SDS011;20331;53.144;8.208;2023-12-28T08:58:06;12.55;;;2.50;;
29162;SDS011;20331;53.144;8.208;2023-12-28T09:03:27;11.48;;;1.98;;
29162;SDS011;20331;53.144;8.208;2023-12-28T09:08:50;14.70;;;1.90;;
29162;SDS011;20331;53.144;8.208;2023-12-28T09:14:13;14.82;;;2.58;;
29162;SDS011;20331;53.144;8.208;2023-12-28T09:19:34;11.93;;;2.08;;
29162;SDS011;20331;53.144;8.208;2023-12-28T09:24:56;10.95;;;2.17;;
29162;SDS011;20331;53.144;8.208;2023-12-28T09:30:18;9.80;;;2.25;;
29162;SDS011;20331;53.144;8.208;2023-12-28T09:35:39;11.05;;;2.00;;
29162;SDS011;20331;53.144;8.208;2023-12-28T09:41:13;11.50;;;2.50;;
29162;SDS011;20331;53.144;8.208;2023-12-28T09:46:36;13.15;;;2.40;;
29162;SDS011;20331;53.144;8.208;2023-12-28T09:51:59;16.00;;;2.95;;
29162;SDS011;20331;53.144;8.208;2023-12-28T09:57:21;15.18;;;2.60;;
29162;SDS011;20331;53.144;8.208;2023-12-28T10:02:45;12.85;;;2.30;;
29162;SDS011;20331;53.144;8.208;2023-12-28T10:08:07;14.63;;;2.60;;
29162;SDS011;20331;53.144;8.208;2023-12-28T10:13:32;14.55;;;2.40;;
29162;SDS011;20331;53.144;8.208;2023-12-28T10:18:55;16.92;;;3.38;;
29162;SDS011;20331;53.144;8.208;2023-12-28T10:24:17;15.95;;;3.15;;
29162;SDS011;20331;53.144;8.208;2023-12-28T10:29:39;14.23;;;2.47;;
29162;SDS011;20331;53.144;8.208;2023-12-28T10:35:00;13.85;;;2.65;;
29162;SDS011;20331;53.144;8.208;2023-12-28T10:40:23;15.00;;;2.67;;
29162;SDS011;20331;53.144;8.208;2023-12-28T10:45:47;13.45;;;2.55;;
29162;SDS011;20331;53.144;8.208;2023-12-28T10:51:11;20.30;;;2.90;;
29162;SDS011;20331;53.144;8.208;2023-12-28T10:56:41;18.07;;;2.80;;
29162;SDS011;20331;53.144;8.208;2023-12-28T11:02:05;22.70;;;2.70;;
29162;SDS011;20331;53.144;8.208;2023-12-28T11:07:30;11.00;;;2.30;;
29162;SDS011;20331;53.144;8.208;2023-12-28T11:12:54;17.42;;;3.00;;
29162;SDS011;20331;53.144;8.208;2023-12-28T11:18:18;14.00;;;2.33;;
29162;SDS011;20331;53.144;8.208;2023-12-28T11:23:42;16.65;;;2.65;;
29162;SDS011;20331;53.144;8.208;2023-12-28T11:29:05;12.18;;;2.58;;
29162;SDS011;20331;53.144;8.208;2023-12-28T11:34:31;21.52;;;3.05;;
29162;SDS011;20331;53.144;8.208;2023-12-28T11:39:57;16.38;;;2.83;;
29162;SDS011;20331;53.144;8.208;2023-12-28T11:45:21;17.50;;;2.75;;
29162;SDS011;20331;53.144;8.208;2023-12-28T11:50:45;14.27;;;2.65;;
29162;SDS011;20331;53.144;8.208;2023-12-28T11:56:08;16.10;;;2.70;;
29162;SDS011;20331;53.144;8.208;2023-12-28T12:01:33;25.57;;;3.23;;
29162;SDS011;20331;53.144;8.208;2023-12-28T12:06:55;12.48;;;2.40;;
29162;SDS011;20331;53.144;8.208;2023-12-28T12:12:16;23.98;;;3.03;;
29162;SDS011;20331;53.144;8.208;2023-12-28T12:17:39;18.63;;;3.03;;
29162;SDS011;20331;53.144;8.208;2023-12-28T12:23:01;17.42;;;2.67;;
29162;SDS011;20331;53.144;8.208;2023-12-28T12:28:23;20.85;;;3.22;;
29162;SDS011;20331;53.144;8.208;2023-12-28T12:33:45;19.63;;;3.28;;
29162;SDS011;20331;53.144;8.208;2023-12-28T12:39:12;20.15;;;2.75;;
29162;SDS011;20331;53.144;8.208;2023-12-28T12:44:34;15.32;;;2.35;;
29162;SDS011;20331;53.144;8.208;2023-12-28T12:49:56;19.17;;;2.38;;
29162;SDS011;20331;53.144;8.208;2023-12-28T12:55:18;14.88;;;3.10;;
29162;SDS011;20331;53.144;8.208;2023-12-28T13:00:39;16.83;;;2.78;;
29162;SDS011;20331;53.144;8.208;2023-12-28T13:06:01;22.55;;;2.85;;
29162;SDS011;20331;53.144;8.208;2023-12-28T13:11:25;18.95;;;2.63;;
29162;SDS011;20331;53.144;8.208;2023-12-28T13:16:47;16.98;;;2.85;;
29162;SDS011;20331;53.144;8.208;2023-12-28T13:22:17;14.60;;;2.72;;
29162;SDS011;20331;53.144;8.208;2023-12-28T13:27:39;20.05;;;3.38;;
29162;SDS011;20331;53.144;8.208;2023-12-28T13:33:00;17.05;;;3.17;;
29162;SDS011;20331;53.144;8.208;2023-12-28T13:38:22;15.60;;;2.92;;
29162;SDS011;20331;53.144;8.208;2023-12-28T13:43:44;21.58;;;2.75;;
29162;SDS011;20331;53.144;8.208;2023-12-28T13:49:06;12.93;;;3.08;;
29162;SDS011;20331;53.144;8.208;2023-12-28T13:54:28;25.35;;;3.70;;
29162;SDS011;20331;53.144;8.208;2023-12-28T13:59:51;15.27;;;2.60;;
29162;SDS011;20331;53.144;8.208;2023-12-28T14:05:15;18.42;;;2.78;;
29162;SDS011;20331;53.144;8.208;2023-12-28T14:10:37;18.55;;;3.03;;
29162;SDS011;20331;53.144;8.208;2023-12-28T14:15:59;22.25;;;3.08;;
29162;SDS011;20331;53.144;8.208;2023-12-28T14:21:21;23.35;;;3.30;;
29162;SDS011;20331;53.144;8.208;2023-12-28T14:26:43;21.90;;;3.53;;
29162;SDS011;20331;53.144;8.208;2023-12-28T14:32:06;21.63;;;2.70;;
29162;SDS011;20331;53.144;8.208;2023-12-28T14:37:28;19.10;;;3.22;;
29162;SDS011;20331;53.144;8.208;2023-12-28T14:42:50;18.73;;;3.10;;
29162;SDS011;20331;53.144;8.208;2023-12-28T14:48:12;21.90;;;2.95;;
29162;SDS011;20331;53.144;8.208;2023-12-28T14:53:37;18.58;;;3.60;;
29162;SDS011;20331;53.144;8.208;2023-12-28T14:59:03;18.90;;;2.87;;
29162;SDS011;20331;53.144;8.208;2023-12-28T15:04:24;22.30;;;3.10;;
29162;SDS011;20331;53.144;8.208;2023-12-28T15:09:47;21.65;;;3.15;;
29162;SDS011;20331;53.144;8.208;2023-12-28T15:15:11;21.00;;;3.00;;
29162;SDS011;20331;53.144;8.208;2023-12-28T15:20:34;20.25;;;2.95;;
29162;SDS011;20331;53.144;8.208;2023-12-28T15:25:56;18.65;;;3.08;;
29162;SDS011;20331;53.144;8.208;2023-12-28T15:31:18;25.08;;;3.08;;
29162;SDS011;20331;53.144;8.208;2023-12-28T15:36:40;17.77;;;3.25;;
29162;SDS011;20331;53.144;8.208;2023-12-28T15:42:03;23.15;;;3.50;;
29162;SDS011;20331;53.144;8.208;2023-12-28T15:47:25;25.50;;;3.15;;
29162;SDS011;20331;53.144;8.208;2023-12-28T15:52:48;21.10;;;2.83;;
29162;SDS011;20331;53.144;8.208;2023-12-28T15:58:10;18.50;;;2.85;;
29162;SDS011;20331;53.144;8.208;2023-12-28T16:03:32;21.88;;;2.92;;
29162;SDS011;20331;53.144;8.208;2023-12-28T16:08:53;18.33;;;2.83;;
29162;SDS011;20331;53.144;8.208;2023-12-28T16:14:15;21.10;;;3.03;;
29162;SDS011;20331;53.144;8.208;2023-12-28T16:19:38;19.38;;;2.53;;
29162;SDS011;20331;53.144;8.208;2023-12-28T16:25:00;20.63;;;3.55;;
29162;SDS011;20331;53.144;8.208;2023-12-28T16:30:23;23.45;;;2.88;;
29162;SDS011;20331;53.144;8.208;2023-12-28T16:35:45;24.10;;;2.88;;
29162;SDS011;20331;53.144;8.208;2023-12-28T16:41:06;18.80;;;2.72;;
29162;SDS011;20331;53.144;8.208;2023-12-28T16:46:28;14.35;;;2.75;;
29162;SDS011;20331;53.144;8.208;2023-12-28T16:51:52;17.25;;;2.65;;
29162;SDS011;20331;53.144;8.208;2023-12-28T16:57:14;23.60;;;3.25;;
29162;SDS011;20331;53.144;8.208;2023-12-28T17:02:36;18.30;;;2.95;;
29162;SDS011;20331;53.144;8.208;2023-12-28T17:07:57;18.38;;;3.00;;
29162;SDS011;20331;53.144;8.208;2023-12-28T17:13:20;15.50;;;2.92;;
29162;SDS011;20331;53.144;8.208;2023-12-28T17:18:44;20.92;;;3.08;;
29162;SDS011;20331;53.144;8.208;2023-12-28T17:24:06;19.27;;;2.90;;
29162;SDS011;20331;53.144;8.208;2023-12-28T17:29:36;20.15;;;2.80;;
29162;SDS011;20331;53.144;8.208;2023-12-28T17:35:00;19.17;;;3.03;;
29162;SDS011;20331;53.144;8.208;2023-12-28T17:40:27;16.85;;;2.75;;
29162;SDS011;20331;53.144;8.208;2023-12-28T17:46:11;27.52;;;3.08;;
29162;SDS011;20331;53.144;8.208;2023-12-28T17:51:34;15.15;;;3.03;;
29162;SDS011;20331;53.144;8.208;2023-12-28T17:56:56;17.63;;;2.70;;
29162;SDS011;20331;53.144;8.208;2023-12-28T18:02:18;12.77;;;2.50;;
29162;SDS011;20331;53.144;8.208;2023-12-28T18:07:40;20.90;;;2.83;;
29162;SDS011;20331;53.144;8.208;2023-12-28T18:13:01;28.45;;;3.28;;
29162;SDS011;20331;53.144;8.208;2023-12-28T18:18:23;16.35;;;2.80;;
29162;SDS011;20331;53.144;8.208;2023-12-28T18:23:45;14.35;;;2.42;;
29162;SDS011;20331;53.144;8.208;2023-12-28T18:29:07;12.13;;;2.60;;
29162;SDS011;20331;53.144;8.208;2023-12-28T18:34:29;20.95;;;3.35;;
29162;SDS011;20331;53.144;8.208;2023-12-28T18:39:51;18.42;;;3.05;;
29162;SDS011;20331;53.144;8.208;2023-12-28T18:45:12;19.83;;;3.63;;
29162;SDS011;20331;53.144;8.208;2023-12-28T18:50:34;13.73;;;2.65;;
29162;SDS011;20331;53.144;8.208;2023-12-28T18:55:56;19.33;;;3.35;;
29162;SDS011;20331;53.144;8.208;2023-12-28T19:01:18;18.58;;;2.90;;
29162;SDS011;20331;53.144;8.208;2023-12-28T19:06:39;16.35;;;2.90;;
29162;SDS011;20331;53.144;8.208;2023-12-28T19:12:02;14.15;;;2.40;;
29162;SDS011;20331;53.144;8.208;2023-12-28T19:17:24;15.63;;;2.60;;
29162;SDS011;20331;53.144;8.208;2023-12-28T19:22:46;18.33;;;2.75;;
29162;SDS011;20331;53.144;8.208;2023-12-28T19:28:08;15.15;;;3.03;;
29162;SDS011;20331;53.144;8.208;2023-12-28T19:33:30;17.50;;;2.80;;
29162;SDS011;20331;53.144;8.208;2023-12-28T19:38:51;17.83;;;2.88;;
29162;SDS011;20331;53.144;8.208;2023-12-28T19:44:13;19.25;;;2.90;;
29162;SDS011;20331;53.144;8.208;2023-12-28T19:49:35;15.43;;;2.63;;
29162;SDS011;20331;53.144;8.208;2023-12-28T19:54:57;15.07;;;2.42;;
29162;SDS011;20331;53.144;8.208;2023-12-28T20:00:21;14.63;;;2.25;;
29162;SDS011;20331;53.144;8.208;2023-12-28T20:05:43;17.05;;;2.90;;
29162;SDS011;20331;53.144;8.208;2023-12-28T20:11:05;16.80;;;2.28;;
29162;SDS011;20331;53.144;8.208;2023-12-28T20:16:27;17.15;;;2.30;;
29162;SDS011;20331;53.144;8.208;2023-12-28T20:21:49;19.92;;;2.92;;
29162;SDS011;20331;53.144;8.208;2023-12-28T20:27:13;14.27;;;2.67;;
29162;SDS011;20331;53.144;8.208;2023-12-28T20:32:35;11.77;;;2.42;;
29162;SDS011;20331;53.144;8.208;2023-12-28T20:37:57;17.33;;;2.42;;
29162;SDS011;20331;53.144;8.208;2023-12-28T20:43:19;18.33;;;2.72;;
29162;SDS011;20331;53.144;8.208;2023-12-28T20:48:41;16.75;;;2.10;;
29162;SDS011;20331;53.144;8.208;2023-12-28T20:54:03;15.88;;;2.72;;
29162;SDS011;20331;53.144;8.208;2023-12-28T20:59:25;12.10;;;2.13;;
29162;SDS011;20331;53.144;8.208;2023-12-28T21:04:49;10.50;;;1.83;;
29162;SDS011;20331;53.144;8.208;2023-12-28T21:10:11;10.75;;;2.40;;
29162;SDS011;20331;53.144;8.208;2023-12-28T21:15:38;10.40;;;2.15;;
29162;SDS011;20331;53.144;8.208;2023-12-28T21:20:59;12.43;;;2.13;;
29162;SDS011;20331;53.144;8.208;2023-12-28T21:26:31;13.02;;;2.10;;
29162;SDS011;20331;53.144;8.208;2023-12-28T21:31:56;13.57;;;2.55;;
29162;SDS011;20331;53.144;8.208;2023-12-28T21:37:17;16.27;;;2.45;;
29162;SDS011;20331;53.144;8.208;2023-12-28T21:42:39;13.68;;;2.20;;
29162;SDS011;20331;53.144;8.208;2023-12-28T21:48:02;13.32;;;2.40;;
29162;SDS011;20331;53.144;8.208;2023-12-28T21:53:26;17.52;;;2.38;;
29162;SDS011;20331;53.144;8.208;2023-12-28T21:58:48;16.10;;;1.98;;
29162;SDS011;20331;53.144;8.208;2023-12-28T22:04:09;15.55;;;2.85;;
29162;SDS011;20331;53.144;8.208;2023-12-28T22:09:31;10.70;;;2.13;;
29162;SDS011;20331;53.144;8.208;2023-12-28T22:14:53;14.65;;;2.28;;
29162;SDS011;20331;53.144;8.208;2023-12-28T22:20:17;13.20;;;2.33;;
29162;SDS011;20331;53.144;8.208;2023-12-28T22:25:40;10.32;;;2.22;;
29162;SDS011;20331;53.144;8.208;2023-12-28T22:31:02;11.63;;;2.00;;
29162;SDS011;20331;53.144;8.208;2023-12-28T22:36:24;10.90;;;1.90;;
29162;SDS011;20331;53.144;8.208;2023-12-28T22:41:46;8.30;;;1.88;;
29162;SDS011;20331;53.144;8.208;2023-12-28T22:47:08;10.38;;;2.17;;
29162;SDS011;20331;53.144;8.208;2023-12-28T22:52:29;13.48;;;2.28;;
29162;SDS011;20331;53.144;8.208;2023-12-28T22:57:52;10.20;;;1.75;;
29162;SDS011;20331;53.144;8.208;2023-12-28T23:03:19;12.57;;;2.25;;
29162;SDS011;20331;53.144;8.208;2023-12-28T23:08:41;7.60;;;1.80;;
29162;SDS011;20331;53.144;8.208;2023-12-28T23:14:02;10.27;;;2.13;;
29162;SDS011;20331;53.144;8.208;2023-12-28T23:19:24;18.08;;;2.13;;
29162;SDS011;20331;53.144;8.208;2023-12-28T23:24:46;13.00;;;2.08;;
29162;SDS011;20331;53.144;8.208;2023-12-28T23:30:11;12.13;;;2.25;;
29162;SDS011;20331;53.144;8.208;2023-12-28T23:35:34;13.77;;;2.20;;
29162;SDS011;20331;53.144;8.208;2023-12-28T23:40:55;12.18;;;2.42;;
29162;SDS011;20331;53.144;8.208;2023-12-28T23:46:17;14.85;;;2.30;;
29162;SDS011;20331;53.144;8.208;2023-12-28T23:51:38;10.05;;;1.83;;
29162;SDS011;20331;53.144;8.208;2023-12-28T23:57:00;9.05;;;1.75;;
